Time;durP1;ratioP1;P1;durP2;ratioP2;P2;SDS_P1;SDS_P2;PMS_P1;PMS_P2;Temp;Humidity;BMP_temperature;BMP_pressure;BME280_temperature;BME280_humidity;BME280_pressure;Samples;Min_cycle;Max_cycle;Signal;HPM_P1;HPM_P2
2023/08/30 00:03:08;;;;;;;1.75;1.20;;;23.00;37.70;;;;;;20926801;28;20051;-59
2023/08/30 00:13:08;;;;;;;4.18;1.35;;;22.90;37.10;;;;;;20925866;28;20075;-57
2023/08/30 00:23:09;;;;;;;3.97;1.90;;;22.80;36.70;;;;;;20925172;28;20044;-57
2023/08/30 00:33:10;;;;;;;3.53;1.63;;;22.70;36.80;;;;;;20923394;28;20434;-57
2023/08/30 00:43:11;;;;;;;4.95;2.00;;;22.60;36.70;;;;;;20923673;28;20055;-57
2023/08/30 00:53:12;;;;;;;4.28;1.92;;;22.50;36.50;;;;;;20921422;28;20128;-57
2023/08/30 01:03:13;;;;;;;4.18;1.50;;;22.50;36.10;;;;;;20921753;28;20045;-58
2023/08/30 01:13:19;;;;;;;5.13;1.58;;;22.40;36.00;;;;;;20921188;28;20124;-57
2023/08/30 01:23:49;;;;;;;5.35;2.05;;;22.30;36.00;;;;;;20920907;28;20041;-57
2023/08/30 01:33:51;;;;;;;3.95;2.28;;;22.30;35.70;;;;;;20918985;28;20414;-57
2023/08/30 01:43:54;;;;;;;3.03;1.87;;;22.10;35.80;;;;;;20919199;28;20045;-57
2023/08/30 01:53:57;;;;;;;4.63;2.30;;;21.90;36.10;;;;;;20918144;28;20041;-57
2023/08/30 02:04:00;;;;;;;3.63;2.30;;;21.80;36.60;;;;;;20917068;28;20052;-56
2023/08/30 02:14:04;;;;;;;;;;;21.70;36.80;;;;;;20916754;28;20044;-57
2023/08/30 02:24:05;;;;;;;3.55;2.42;;;21.50;37.20;;;;;;20914868;28;19921;-58
2023/08/30 02:34:06;;;;;;;5.63;2.47;;;21.40;37.70;;;;;;20914395;28;20055;-57
2023/08/30 02:44:08;;;;;;;3.15;2.10;;;21.30;37.90;;;;;;20914520;28;20454;-57
2023/08/30 02:54:09;;;;;;;3.90;2.13;;;21.30;38.10;;;;;;20913804;28;20110;-58
2023/08/30 03:04:10;;;;;;;3.88;1.95;;;21.20;38.40;;;;;;20913821;28;20044;-58
2023/08/30 03:14:10;;;;;;;4.28;2.17;;;21.20;38.80;;;;;;20913028;28;20049;-56
2023/08/30 03:24:13;;;;;;;3.88;2.13;;;21.20;39.30;;;;;;20929221;28;20041;-57
2023/08/30 03:34:14;;;;;;;4.05;2.45;;;21.20;39.70;;;;;;20928136;28;20049;-58
2023/08/30 03:44:15;;;;;;;4.57;2.42;;;21.10;40.20;;;;;;20926638;28;20053;-57
2023/08/30 03:54:18;;;;;;;5.05;2.00;;;20.90;40.70;;;;;;20927344;28;20490;-56
2023/08/30 04:04:19;;;;;;;5.00;2.53;;;21.00;40.80;;;;;;20926495;28;20167;-57
2023/08/30 04:14:20;;;;;;;6.75;2.45;;;20.90;40.90;;;;;;20924560;28;20084;-58
2023/08/30 04:24:21;;;;;;;4.60;2.50;;;20.70;41.20;;;;;;20925199;28;20080;-57
2023/08/30 04:34:22;;;;;;;4.53;2.42;;;20.70;41.30;;;;;;20924615;28;20053;-57
2023/08/30 04:44:24;;;;;;;3.38;2.13;;;20.60;41.50;;;;;;20922339;28;20440;-57
2023/08/30 04:54:25;;;;;;;5.35;2.40;;;20.50;41.90;;;;;;20922526;28;20048;-58
2023/08/30 05:04:26;;;;;;;7.57;2.28;;;20.40;42.30;;;;;;20920661;28;20041;-58
2023/08/30 05:14:27;;;;;;;4.35;2.30;;;20.30;42.80;;;;;;20921101;28;20436;-57
2023/08/30 05:24:28;;;;;;;3.00;2.00;;;20.30;43.00;;;;;;20920073;28;20077;-56
2023/08/30 05:34:28;;;;;;;7.75;2.95;;;20.30;43.10;;;;;;20918150;28;20056;-57
2023/08/30 05:44:29;;;;;;;6.18;2.53;;;20.20;43.20;;;;;;20917336;28;20476;-57
2023/08/30 05:54:31;;;;;;;7.45;2.45;;;20.20;43.50;;;;;;20916468;28;20041;-57
2023/08/30 06:04:32;;;;;;;6.00;2.65;;;20.00;43.90;;;;;;20916968;28;20049;-57
2023/08/30 06:14:32;;;;;;;6.57;3.17;;;20.00;44.00;;;;;;20916442;28;20041;-57
2023/08/30 06:24:33;;;;;;;7.53;2.45;;;20.00;44.20;;;;;;20914224;28;20087;-57
2023/08/30 06:34:34;;;;;;;3.45;2.00;;;19.90;44.70;;;;;;20913696;28;20092;-58
2023/08/30 06:44:35;;;;;;;3.70;2.17;;;20.10;44.60;;;;;;20914420;28;20067;-57
2023/08/30 06:54:36;;;;;;;7.35;2.85;;;20.10;44.60;;;;;;20913150;28;20077;-57
2023/08/30 07:04:37;;;;;;;4.75;2.10;;;20.20;44.50;;;;;;20913176;28;20041;-58
2023/08/30 07:14:37;;;;;;;8.32;2.58;;;20.20;44.80;;;;;;20910951;28;20476;-56
2023/08/30 07:24:38;;;;;;;5.35;2.70;;;20.70;44.00;;;;;;20912781;28;20623;-58
2023/08/30 07:34:39;;;;;;;7.13;2.30;;;20.90;43.50;;;;;;20910327;28;20059;-58
2023/08/30 07:44:40;;;;;;;3.55;2.10;;;21.10;43.20;;;;;;20911829;28;20063;-59
2023/08/30 07:54:41;;;;;;;5.93;2.03;;;21.40;42.80;;;;;;20910032;28;20486;-59
2023/08/30 08:04:42;;;;;;;5.13;1.98;;;21.70;42.30;;;;;;20917254;28;20036;-59
2023/08/30 08:14:43;;;;;;;2.92;1.63;;;21.90;42.00;;;;;;20925113;28;20040;-56
2023/08/30 08:24:45;;;;;;;6.70;1.83;;;22.20;41.60;;;;;;20925827;28;20080;-57
2023/08/30 08:34:46;;;;;;;3.10;1.80;;;22.30;41.50;;;;;;20923928;28;20057;-57
2023/08/30 08:44:50;;;;;;;4.10;1.80;;;22.60;41.10;;;;;;20922796;28;20091;-57
2023/08/30 08:54:52;;;;;;;6.18;1.73;;;22.70;40.70;;;;;;20922886;28;20052;-58
2023/08/30 09:04:53;;;;;;;3.60;1.60;;;22.90;40.60;;;;;;20922417;28;20045;-57
2023/08/30 09:14:57;;;;;;;4.22;1.50;;;23.10;40.00;;;;;;20920790;28;20171;-57
2023/08/30 09:24:58;;;;;;;4.65;1.63;;;23.20;39.70;;;;;;20920938;28;20447;-57
2023/08/30 09:34:58;;;;;;;2.42;1.40;;;23.40;39.10;;;;;;20918715;28;20056;-58
2023/08/30 09:44:59;;;;;;;4.30;1.67;;;23.50;39.10;;;;;;20918792;28;20060;-59
2023/08/30 09:55:01;;;;;;;6.57;1.55;;;23.40;39.90;;;;;;20918059;28;20041;-58
2023/08/30 10:05:05;;;;;;;4.28;1.80;;;23.60;39.60;;;;;;20916095;28;20045;-58
2023/08/30 10:15:06;;;;;;;3.13;1.40;;;23.70;39.30;;;;;;20916385;28;20119;-59
2023/08/30 10:25:16;;;;;;;3.25;1.52;;;24.00;38.90;;;;;;20915404;28;20069;-58
2023/08/30 10:35:18;;;;;;;2.28;1.02;;;24.20;38.70;;;;;;20913542;28;20088;-58
2023/08/30 10:45:24;;;;;;;7.38;1.30;;;24.50;38.00;;;;;;20914450;28;20148;-59
2023/08/30 10:55:25;;;;;;;2.80;1.17;;;24.90;37.10;;;;;;20912929;28;20123;-58
2023/08/30 11:05:27;;;;;;;1.80;1.20;;;25.00;36.80;;;;;;20912724;28;20033;-58
2023/08/30 11:15:28;;;;;;;2.78;1.10;;;25.00;36.80;;;;;;20911565;28;20052;-58
2023/08/30 11:25:30;;;;;;;2.97;1.40;;;25.10;36.90;;;;;;20912033;28;20045;-59
2023/08/30 11:35:30;;;;;;;4.30;1.30;;;25.10;36.50;;;;;;20910643;28;20053;-57
2023/08/30 11:45:34;;;;;;;2.90;1.23;;;25.20;36.60;;;;;;20926025;28;20098;-58
2023/08/30 11:55:35;;;;;;;2.67;1.17;;;25.40;36.10;;;;;;20927496;28;20094;-57
2023/08/30 12:05:45;;;;;;;2.27;1.30;;;25.60;35.50;;;;;;20926779;28;20120;-58
2023/08/30 12:15:45;;;;;;;2.15;1.15;;;25.80;35.00;;;;;;20925819;28;20052;-58
2023/08/30 12:26:06;;;;;;;6.63;2.50;;;25.90;34.40;;;;;;20925134;28;20449;-58
2023/08/30 12:36:07;;;;;;;3.38;1.63;;;26.10;34.20;;;;;;20925362;28;20080;-58
2023/08/30 12:46:08;;;;;;;4.07;1.50;;;26.20;34.10;;;;;;20923735;28;20045;-58
2023/08/30 12:56:09;;;;;;;3.53;2.00;;;26.50;33.30;;;;;;20922842;28;20045;-60
2023/08/30 13:06:09;;;;;;;2.63;1.63;;;26.80;32.60;;;;;;20920817;28;20056;-58
2023/08/30 13:16:10;;;;;;;4.27;1.70;;;26.90;32.60;;;;;;20921530;28;20537;-57
2023/08/30 13:26:11;;;;;;;5.50;1.70;;;27.10;32.00;;;;;;20921017;28;20041;-58
2023/08/30 13:36:12;;;;;;;4.90;1.65;;;26.90;32.20;;;;;;20918784;28;20061;-58
2023/08/30 13:46:13;;;;;;;2.87;1.93;;;27.00;31.90;;;;;;20918477;28;20045;-58
2023/08/30 13:56:13;;;;;;;5.07;1.90;;;27.10;31.90;;;;;;20917178;28;20125;-59
2023/08/30 14:06:14;;;;;;;2.73;1.70;;;27.30;30.60;;;;;;20917231;28;20123;-56
2023/08/30 14:16:15;;;;;;;2.33;1.80;;;27.50;30.30;;;;;;20915690;28;20094;-59
2023/08/30 14:26:16;;;;;;;3.13;2.10;;;27.60;29.90;;;;;;20914998;28;20286;-58
2023/08/30 14:36:16;;;;;;;3.73;2.60;;;27.60;29.70;;;;;;20914456;28;20575;-58
2023/08/30 14:46:19;;;;;;;4.50;2.30;;;28.00;29.50;;;;;;20913552;28;20053;-58
2023/08/30 14:56:20;;;;;;;25.77;19.15;;;28.10;29.10;;;;;;20912707;28;20128;-60
2023/08/30 15:06:21;;;;;;;3.10;2.27;;;28.10;28.80;;;;;;20913664;28;20076;-59
2023/08/30 15:16:22;;;;;;;6.88;1.92;;;28.10;28.40;;;;;;20912134;28;20479;-58
2023/08/30 15:26:22;;;;;;;4.70;2.23;;;28.00;28.50;;;;;;20911439;28;20068;-57
2023/08/30 15:36:23;;;;;;;3.77;2.20;;;28.10;28.20;;;;;;20913465;28;20763;-57
2023/08/30 15:46:24;;;;;;;2.67;2.03;;;28.00;28.10;;;;;;20910983;28;20132;-58
2023/08/30 15:56:25;;;;;;;3.03;2.10;;;28.00;28.30;;;;;;20911382;28;20076;-58
2023/08/30 16:06:26;;;;;;;6.87;2.47;;;28.00;28.20;;;;;;20909868;28;20049;-58
2023/08/30 16:16:26;;;;;;;2.90;2.38;;;28.10;27.80;;;;;;20910188;28;20128;-58
2023/08/30 16:26:27;;;;;;;5.47;2.70;;;27.90;27.80;;;;;;20917500;28;20044;-59
2023/08/30 16:36:28;;;;;;;3.43;2.17;;;28.00;27.40;;;;;;20923595;28;20060;-59
2023/08/30 16:46:31;;;;;;;2.87;2.00;;;28.10;27.60;;;;;;20923534;28;20340;-57
2023/08/30 16:56:32;;;;;;;4.47;2.70;;;28.10;27.40;;;;;;20922167;28;20041;-59
2023/08/30 17:06:33;;;;;;;3.35;2.40;;;28.20;27.10;;;;;;20921031;28;20402;-57
2023/08/30 17:16:34;;;;;;;;;;;28.20;27.10;;;;;;20920520;28;20502;-58
2023/08/30 17:26:35;;;;;;;6.17;3.40;;;28.20;27.20;;;;;;20918685;28;19927;-58
2023/08/30 17:36:36;;;;;;;5.10;4.60;;;28.10;27.40;;;;;;20917207;28;20543;-57
2023/08/30 17:46:37;;;;;;;7.47;3.72;;;28.00;28.00;;;;;;20916931;28;20198;-57
2023/08/30 17:56:38;;;;;;;6.32;3.90;;;27.90;27.90;;;;;;20917993;28;20510;-57
2023/08/30 18:06:39;;;;;;;6.00;3.30;;;27.90;28.10;;;;;;20917373;28;20052;-58
2023/08/30 18:16:39;;;;;;;5.57;4.43;;;27.70;28.00;;;;;;20915434;28;20047;-58
2023/08/30 18:26:40;;;;;;;7.93;3.10;;;27.50;28.60;;;;;;20914374;28;20047;-58
2023/08/30 18:36:42;;;;;;;3.63;2.83;;;27.40;28.00;;;;;;20913158;28;20572;-57
2023/08/30 18:46:43;;;;;;;4.93;3.22;;;27.30;28.00;;;;;;20913999;28;20060;-57
2023/08/30 18:56:45;;;;;;;5.18;4.07;;;27.30;28.30;;;;;;20912495;28;20049;-58
2023/08/30 19:06:46;;;;;;;6.90;4.47;;;27.20;28.60;;;;;;20911999;28;20494;-57
2023/08/30 19:16:47;;;;;;;8.27;4.70;;;27.10;28.90;;;;;;20912500;28;20609;-57
2023/08/30 19:26:48;;;;;;;12.47;7.77;;;27.00;29.50;;;;;;20912377;28;20045;-57
2023/08/30 19:36:48;;;;;;;6.00;2.67;;;26.80;29.80;;;;;;20910695;28;20103;-58
2023/08/30 19:46:49;;;;;;;5.37;2.50;;;26.50;28.50;;;;;;20911602;28;20473;-59
2023/08/30 19:56:50;;;;;;;5.63;4.00;;;26.20;29.20;;;;;;20910454;28;20074;-58
2023/08/30 20:06:51;;;;;;;5.67;3.30;;;26.20;29.10;;;;;;20926579;28;20045;-56
2023/08/30 20:16:52;;;;;;;4.10;2.70;;;26.10;29.10;;;;;;20926340;28;20130;-59
2023/08/30 20:26:53;;;;;;;3.37;2.57;;;26.10;29.10;;;;;;20924709;28;20041;-59
2023/08/30 20:36:54;;;;;;;3.87;2.77;;;26.00;29.30;;;;;;20923858;28;20049;-60
2023/08/30 20:46:54;;;;;;;3.60;2.50;;;25.80;29.70;;;;;;20924663;28;20448;-59
2023/08/30 20:56:55;;;;;;;6.27;3.27;;;25.70;29.90;;;;;;20923722;28;20073;-58
2023/08/30 21:06:56;;;;;;;5.40;2.50;;;25.60;30.30;;;;;;20923331;28;20041;-58
2023/08/30 21:16:57;;;;;;;4.37;2.97;;;25.40;30.70;;;;;;20921234;28;20045;-61
2023/08/30 21:26:58;;;;;;;5.00;2.60;;;25.40;30.80;;;;;;20921430;28;20045;-60
2023/08/30 21:36:58;;;;;;;6.57;2.80;;;25.30;31.10;;;;;;20919078;28;20056;-57
2023/08/30 21:46:59;;;;;;;4.33;2.77;;;25.20;31.00;;;;;;20919575;28;20057;-57
2023/08/30 21:57:00;;;;;;;5.13;3.35;;;25.10;31.50;;;;;;20918755;28;20127;-58
2023/08/30 22:07:05;;;;;;;5.97;2.28;;;25.10;31.70;;;;;;20917976;28;20045;-57
2023/08/30 22:17:06;;;;;;;4.28;2.80;;;24.90;31.70;;;;;;20917269;28;20099;-57
2023/08/30 22:27:07;;;;;;;4.07;2.85;;;24.90;31.80;;;;;;20916467;28;20049;-58
2023/08/30 22:37:08;;;;;;;4.18;2.60;;;24.90;32.00;;;;;;20914320;28;20506;-58
2023/08/30 22:47:09;;;;;;;4.20;2.47;;;24.70;32.20;;;;;;20913927;28;20049;-57
2023/08/30 22:57:09;;;;;;;3.38;2.10;;;24.70;32.50;;;;;;20914019;28;20049;-57
2023/08/30 23:07:10;;;;;;;3.65;2.28;;;24.60;32.70;;;;;;20912575;28;20084;-58
2023/08/30 23:17:12;;;;;;;3.50;2.47;;;24.70;32.70;;;;;;20913613;28;20627;-58
2023/08/30 23:27:12;;;;;;;5.50;2.73;;;24.60;32.80;;;;;;20912106;28;20052;-58
2023/08/30 23:37:13;;;;;;;3.15;2.28;;;24.50;33.10;;;;;;20921603;28;20053;-57
2023/08/30 23:47:15;;;;;;;7.85;2.78;;;24.50;33.20;;;;;;20928430;28;20049;-56
2023/08/30 23:57:15;;;;;;;4.17;2.47;;;24.30;33.50;;;;;;20927622;28;20049;-58
